createdAt,value
2018-02-03T00:01:32.350Z,14.43
2018-02-03T00:06:44.401Z,10.80
2018-02-03T00:09:17.294Z,16.43
2018-02-03T00:11:48.784Z,12.07
2018-02-03T00:14:19.561Z,11.90
2018-02-03T00:23:20.392Z,11.23
2018-02-03T00:28:52.484Z,11.60
2018-02-03T00:31:57.606Z,15.60
2018-02-03T00:34:27.994Z,13.30
2018-02-03T00:36:57.954Z,13.40
2018-02-03T00:39:27.919Z,11.90
2018-02-03T00:41:57.847Z,12.40
2018-02-03T00:44:27.701Z,10.97
2018-02-03T00:47:10.621Z,14.30
2018-02-03T00:49:40.867Z,14.73
2018-02-03T00:52:10.802Z,13.10
2018-02-03T00:54:40.744Z,10.47
2018-02-03T00:57:10.566Z,11.83
2018-02-03T00:59:40.700Z,10.83
2018-02-03T01:02:10.572Z,12.43
2018-02-03T01:04:40.968Z,9.17
2018-02-03T01:07:10.997Z,12.40
2018-02-03T01:09:46.244Z,13.83
2018-02-03T01:12:16.290Z,11.53
2018-02-03T01:14:47.426Z,11.60
2018-02-03T01:17:17.836Z,15.63
2018-02-03T01:19:47.736Z,15.60
2018-02-03T01:22:17.616Z,11.03
2018-02-03T01:25:00.964Z,13.67
2018-02-03T01:27:33.379Z,13.60
2018-02-03T01:30:03.247Z,15.83
2018-02-03T01:32:33.347Z,14.90
2018-02-03T01:35:12.595Z,14.60
2018-02-03T01:37:42.470Z,14.03
2018-02-03T01:40:12.386Z,12.33
2018-02-03T01:42:49.136Z,17.90
2018-02-03T01:45:19.045Z,13.33
2018-02-03T01:51:21.056Z,11.13
2018-02-03T01:57:05.797Z,13.90
2018-02-03T01:59:35.924Z,10.80
2018-02-03T02:02:06.569Z,15.23
2018-02-03T02:04:45.526Z,14.63
2018-02-03T02:10:47.178Z,13.33
2018-02-03T02:16:30.093Z,9.83
2018-02-03T02:22:06.091Z,12.77
2018-02-03T02:24:38.964Z,12.33
2018-02-03T02:27:12.721Z,11.57
2018-02-03T02:29:45.678Z,12.17
2018-02-03T02:32:24.963Z,17.73
2018-02-03T02:35:05.077Z,13.33
2018-02-03T02:37:36.398Z,15.80
2018-02-03T02:40:12.122Z,13.33
2018-02-03T02:42:43.518Z,12.33
2018-02-03T03:03:16.660Z,13.30
2018-02-03T03:05:46.893Z,11.53
2018-02-03T03:11:31.472Z,13.77
2018-02-03T03:14:01.533Z,19.53
2018-02-03T03:16:31.625Z,16.33
2018-02-03T03:19:03.635Z,17.03
2018-02-03T03:21:33.677Z,17.20
2018-02-03T03:24:03.670Z,12.60
2018-02-03T03:26:33.750Z,19.07
2018-02-03T03:29:24.375Z,12.87
2018-02-03T03:31:55.772Z,13.63
2018-02-03T03:34:25.876Z,13.23
2018-02-03T03:37:01.467Z,13.77
2018-02-03T03:42:53.290Z,14.90
2018-02-03T03:52:08.148Z,14.23
2018-02-03T03:54:38.286Z,14.27
2018-02-03T03:57:08.733Z,16.00
2018-02-03T03:59:39.381Z,18.77
2018-02-03T04:02:09.335Z,20.03
2018-02-03T04:04:39.336Z,15.73
2018-02-03T04:10:37.008Z,16.13
2018-02-03T04:24:33.976Z,17.30
2018-02-03T04:27:20.034Z,17.47
2018-02-03T04:30:00.902Z,14.53
2018-02-03T04:32:33.980Z,11.27
2018-02-03T04:35:07.937Z,17.13
2018-02-03T04:37:41.278Z,15.70
2018-02-03T04:40:20.490Z,15.67
2018-02-03T04:45:34.073Z,16.50
2018-02-03T04:48:04.211Z,19.50
2018-02-03T04:50:34.311Z,15.53
2018-02-03T04:53:04.817Z,16.10
2018-02-03T04:55:36.467Z,20.60
2018-02-03T04:58:06.694Z,19.77
2018-02-03T05:00:36.795Z,20.87
2018-02-03T05:03:08.917Z,26.90
2018-02-03T05:05:39.262Z,18.70
2018-02-03T05:08:09.249Z,18.57
2018-02-03T05:10:39.227Z,19.50
2018-02-03T05:13:09.236Z,21.50
2018-02-03T05:15:39.668Z,25.43
2018-02-03T05:18:09.566Z,17.77
2018-02-03T05:20:49.515Z,18.33
2018-02-03T05:23:19.485Z,16.43
2018-02-03T05:25:50.524Z,16.70
2018-02-03T05:28:20.586Z,18.67
2018-02-03T05:30:50.561Z,17.03
2018-02-03T05:33:20.597Z,18.07
2018-02-03T05:35:50.837Z,22.70
2018-02-03T05:38:20.817Z,16.90
2018-02-03T05:40:50.921Z,18.60
2018-02-03T05:43:20.815Z,20.57
2018-02-03T05:45:51.283Z,23.00
2018-02-03T05:48:22.094Z,17.10
2018-02-03T05:50:52.013Z,18.07
2018-02-03T05:53:21.960Z,19.00
2018-02-03T05:55:51.892Z,19.50
2018-02-03T05:58:21.883Z,18.13
2018-02-03T06:00:51.869Z,19.50
2018-02-03T06:03:21.888Z,22.47
2018-02-03T06:05:52.180Z,21.67
2018-02-03T06:08:22.041Z,19.80
2018-02-03T06:10:51.977Z,31.83
2018-02-03T06:13:21.822Z,25.10
2018-02-03T06:15:52.036Z,25.23
2018-02-03T06:18:21.887Z,19.63
2018-02-03T06:20:51.789Z,23.20
2018-02-03T06:23:21.697Z,18.80
2018-02-03T06:25:51.579Z,24.70
2018-02-03T06:28:21.430Z,13.67
2018-02-03T06:30:51.287Z,19.13
2018-02-03T06:33:21.129Z,22.00
2018-02-03T06:35:51.389Z,16.90
2018-02-03T06:38:21.241Z,19.87
2018-02-03T06:40:51.090Z,20.63
2018-02-03T06:43:20.981Z,17.67
2018-02-03T06:45:50.826Z,16.07
2018-02-03T06:48:20.737Z,16.83
2018-02-03T06:50:50.652Z,16.27
2018-02-03T06:53:20.582Z,18.90
2018-02-03T06:55:50.437Z,16.40
2018-02-03T06:58:20.304Z,10.03
2018-02-03T07:00:50.161Z,16.03
2018-02-03T07:03:19.976Z,14.83
2018-02-03T07:05:49.893Z,21.17
2018-02-03T07:08:19.769Z,24.43
2018-02-03T07:10:49.707Z,20.07
2018-02-03T07:13:19.656Z,21.67
2018-02-03T07:15:49.555Z,17.60
2018-02-03T07:18:19.415Z,19.53
2018-02-03T07:20:49.292Z,15.33
2018-02-03T07:23:19.183Z,18.63
2018-02-03T07:25:49.025Z,17.80
2018-02-03T07:28:18.940Z,12.17
2018-02-03T07:30:48.779Z,17.63
2018-02-03T07:33:18.688Z,18.83
2018-02-03T07:35:48.557Z,19.27
2018-02-03T07:38:18.396Z,23.47
2018-02-03T07:40:48.245Z,22.07
2018-02-03T07:43:18.177Z,18.20
2018-02-03T07:45:48.049Z,20.53
2018-02-03T07:48:17.885Z,15.47
2018-02-03T07:50:47.794Z,15.40
2018-02-03T07:53:17.613Z,20.83
2018-02-03T07:55:47.488Z,22.03
2018-02-03T07:58:17.316Z,17.43
2018-02-03T08:00:47.155Z,19.13
2018-02-03T08:03:16.987Z,36.93
2018-02-03T08:05:46.854Z,15.50
2018-02-03T08:08:16.705Z,21.47
2018-02-03T08:10:46.522Z,15.30
2018-02-03T08:13:16.379Z,14.03
2018-02-03T08:15:46.220Z,14.03
2018-02-03T08:18:16.109Z,20.33
2018-02-03T08:20:45.967Z,16.63
2018-02-03T08:23:15.797Z,16.63
2018-02-03T08:25:45.664Z,19.10
2018-02-03T08:28:15.569Z,16.97
2018-02-03T08:30:45.503Z,17.07
2018-02-03T08:33:15.355Z,22.63
2018-02-03T08:35:45.285Z,14.90
2018-02-03T08:38:15.624Z,18.90
2018-02-03T08:40:45.451Z,12.17
2018-02-03T08:43:15.322Z,19.93
2018-02-03T08:45:50.281Z,15.77
2018-02-03T08:48:20.204Z,16.33
2018-02-03T08:50:50.117Z,20.17
2018-02-03T08:53:21.921Z,16.50
2018-02-03T08:55:51.785Z,18.07
2018-02-03T08:58:21.722Z,16.70
2018-02-03T09:00:51.580Z,14.33
2018-02-03T09:03:21.496Z,18.27
2018-02-03T09:05:51.534Z,14.50
2018-02-03T09:08:21.421Z,14.73
2018-02-03T09:10:51.248Z,15.23
2018-02-03T09:13:21.107Z,18.97
2018-02-03T09:15:50.952Z,16.73
2018-02-03T09:18:20.897Z,16.70
2018-02-03T09:20:50.746Z,22.00
2018-02-03T09:23:20.596Z,20.00
2018-02-03T09:25:50.520Z,20.00
2018-02-03T09:28:20.376Z,18.17
2018-02-03T09:30:50.301Z,21.97
2018-02-03T09:33:20.158Z,21.73
2018-02-03T09:35:50.037Z,19.50
2018-02-03T09:38:20.108Z,14.80
2018-02-03T09:40:50.067Z,12.23
2018-02-03T09:43:19.976Z,14.50
2018-02-03T09:45:49.865Z,12.00
2018-02-03T09:48:20.039Z,13.97
2018-02-03T09:50:50.009Z,14.73
2018-02-03T09:53:19.865Z,12.40
2018-02-03T09:55:49.697Z,16.53
2018-02-03T09:58:19.658Z,16.83
2018-02-03T10:00:49.506Z,13.90
2018-02-03T10:03:19.351Z,22.80
2018-02-03T10:05:50.082Z,22.40
2018-02-03T10:08:19.962Z,12.70
2018-02-03T10:10:49.842Z,12.00
2018-02-03T10:13:19.857Z,10.93
2018-02-03T10:15:49.833Z,11.60
2018-02-03T10:18:19.734Z,9.77
2018-02-03T10:20:50.421Z,15.17
2018-02-03T10:23:20.388Z,14.83
2018-02-03T10:25:50.267Z,14.80
2018-02-03T10:44:09.832Z,16.17
2018-02-03T11:05:27.634Z,10.93
2018-02-03T11:19:46.246Z,11.07
2018-02-03T11:22:16.145Z,10.27
2018-02-03T11:24:47.158Z,10.67
2018-02-03T11:33:06.596Z,5.63
2018-02-03T11:47:55.243Z,7.07
2018-02-03T11:56:35.075Z,7.53
2018-02-03T11:59:05.543Z,8.27
2018-02-03T12:25:15.515Z,11.30
2018-02-03T12:27:48.619Z,7.30
2018-02-03T12:30:24.309Z,9.10
2018-02-03T12:32:58.590Z,8.67
2018-02-03T12:52:59.130Z,6.87
2018-02-03T12:55:29.009Z,8.00
2018-02-03T13:00:56.843Z,13.60
2018-02-03T13:03:27.774Z,10.07
2018-02-03T13:06:15.708Z,6.93
2018-02-03T13:24:21.849Z,7.50
2018-02-03T13:36:39.319Z,8.53
2018-02-03T13:45:36.319Z,6.43
2018-02-03T13:49:00.812Z,7.40
2018-02-03T13:51:32.056Z,6.13
2018-02-03T13:54:08.478Z,8.47
2018-02-03T13:56:40.586Z,14.13
2018-02-03T13:59:10.655Z,11.70
2018-02-03T14:01:41.010Z,8.20
2018-02-03T14:04:15.294Z,10.23
2018-02-03T14:06:48.335Z,8.83
2018-02-03T14:30:51.833Z,10.27
2018-02-03T14:33:33.612Z,9.87
2018-02-03T14:36:10.895Z,7.30
2018-02-03T15:24:24.526Z,5.33
2018-02-03T15:29:49.295Z,6.90
2018-02-03T15:32:24.852Z,8.93
2018-02-03T15:35:00.556Z,8.90
2018-02-03T15:40:26.525Z,8.97
2018-02-03T16:46:37.771Z,6.83
2018-02-03T16:49:10.154Z,18.00
2018-02-03T16:51:40.558Z,8.23
2018-02-03T16:54:20.793Z,10.17
2018-02-03T16:56:51.032Z,7.07
2018-02-03T16:59:27.660Z,8.43
2018-02-03T17:01:57.521Z,8.10
2018-02-03T17:04:27.425Z,10.30
2018-02-03T17:06:57.357Z,10.47
2018-02-03T17:09:27.737Z,7.33
2018-02-03T17:12:26.165Z,8.40
2018-02-03T17:14:58.598Z,8.00
2018-02-03T17:17:28.489Z,6.13
2018-02-03T17:19:58.446Z,5.90
2018-02-03T17:22:29.037Z,5.77
2018-02-03T17:24:58.905Z,5.30
2018-02-03T17:27:28.821Z,7.60
2018-02-03T17:29:58.687Z,5.60
2018-02-03T17:32:29.249Z,9.03
2018-02-03T17:34:59.154Z,9.57
2018-02-03T17:37:34.593Z,9.00
2018-02-03T17:40:04.516Z,9.10
2018-02-03T17:42:34.367Z,5.83
2018-02-03T17:45:10.027Z,6.50
2018-02-03T17:47:39.866Z,8.60
2018-02-03T17:50:09.792Z,6.73
2018-02-03T17:52:39.673Z,6.70
2018-02-03T17:55:09.646Z,9.00
2018-02-03T17:57:45.078Z,7.43
2018-02-03T18:00:15.109Z,8.03
2018-02-03T18:02:44.966Z,7.17
2018-02-03T18:05:14.835Z,6.40
2018-02-03T18:07:44.677Z,9.13
2018-02-03T18:10:14.592Z,13.07
2018-02-03T18:12:44.529Z,6.70
2018-02-03T18:15:14.428Z,8.67
2018-02-03T18:17:44.268Z,6.97
2018-02-03T18:20:14.115Z,6.10
2018-02-03T18:22:43.941Z,6.87
2018-02-03T18:25:13.921Z,8.13
2018-02-03T18:27:43.823Z,7.30
2018-02-03T18:30:14.806Z,7.87
2018-02-03T18:32:44.690Z,12.90
2018-02-03T18:35:14.548Z,9.17
2018-02-03T18:37:44.545Z,8.47
2018-02-03T18:40:14.385Z,8.80
2018-02-03T18:42:44.340Z,10.77
2018-02-03T18:45:37.554Z,7.93
2018-02-03T18:48:07.416Z,11.63
2018-02-03T18:50:37.414Z,9.50
2018-02-03T18:53:07.429Z,10.97
2018-02-03T18:55:37.816Z,10.67
2018-02-03T18:58:07.672Z,10.00
2018-02-03T19:00:38.305Z,9.23
2018-02-03T19:03:08.369Z,12.23
2018-02-03T19:05:38.252Z,14.00
2018-02-03T19:08:08.097Z,12.40
2018-02-03T19:10:37.976Z,10.33
2018-02-03T19:13:07.938Z,12.27
2018-02-03T19:15:37.880Z,12.87
2018-02-03T19:18:09.002Z,13.87
2018-02-03T19:20:38.848Z,13.97
2018-02-03T19:23:08.846Z,11.37
2018-02-03T19:25:38.801Z,16.00
2018-02-03T19:28:09.306Z,12.30
2018-02-03T19:30:39.254Z,12.70
2018-02-03T19:33:09.106Z,14.73
2018-02-03T19:35:39.034Z,16.10
2018-02-03T19:38:08.888Z,15.07
2018-02-03T19:40:38.780Z,15.10
2018-02-03T19:43:08.806Z,18.73
2018-02-03T19:45:38.816Z,11.63
2018-02-03T19:48:08.679Z,14.50
2018-02-03T19:50:38.678Z,18.63
2018-02-03T19:53:08.932Z,15.67
2018-02-03T19:55:38.891Z,14.20
2018-02-03T19:58:08.742Z,13.90
2018-02-03T20:00:38.761Z,11.30
2018-02-03T20:03:08.718Z,21.37
2018-02-03T20:05:38.814Z,16.40
2018-02-03T20:08:08.664Z,16.13
2018-02-03T20:10:38.731Z,17.40
2018-02-03T20:13:08.644Z,17.03
2018-02-03T20:15:38.585Z,17.27
2018-02-03T20:18:08.466Z,13.87
2018-02-03T20:20:38.473Z,16.70
2018-02-03T20:23:08.381Z,18.67
2018-02-03T20:25:38.255Z,15.20
2018-02-03T20:28:08.084Z,18.20
2018-02-03T20:30:38.069Z,18.87
2018-02-03T20:33:08.023Z,16.90
2018-02-03T20:35:38.043Z,13.30
2018-02-03T20:38:07.947Z,15.10
2018-02-03T20:40:37.810Z,16.67
2018-02-03T20:43:07.867Z,17.20
2018-02-03T20:45:38.568Z,18.23
2018-02-03T20:48:08.537Z,16.37
2018-02-03T20:50:38.424Z,15.80
2018-02-03T20:53:08.442Z,17.10
2018-02-03T20:55:38.324Z,16.30
2018-02-03T20:58:08.279Z,16.57
2018-02-03T21:00:38.629Z,14.20
2018-02-03T21:03:08.510Z,17.73
2018-02-03T21:05:38.465Z,21.00
2018-02-03T21:08:08.514Z,15.00
2018-02-03T21:10:39.326Z,17.87
2018-02-03T21:13:09.181Z,19.20
2018-02-03T21:15:42.388Z,16.27
2018-02-03T21:18:12.746Z,19.43
2018-02-03T21:20:42.631Z,18.17
2018-02-03T21:23:12.565Z,22.83
2018-02-03T21:25:42.663Z,10.17
2018-02-03T21:28:13.085Z,15.87
2018-02-03T21:30:43.112Z,15.90
2018-02-03T21:33:13.137Z,19.90
2018-02-03T21:35:43.080Z,17.60
2018-02-03T21:38:12.985Z,16.00
2018-02-03T21:40:46.044Z,12.10
2018-02-03T21:43:26.011Z,15.07
2018-02-03T21:46:04.711Z,20.40
2018-02-03T21:48:42.002Z,21.80
2018-02-03T21:51:13.036Z,15.33
2018-02-03T21:53:43.774Z,14.23
2018-02-03T21:56:16.023Z,19.90
2018-02-03T21:58:48.689Z,19.30
2018-02-03T22:01:19.120Z,23.53
2018-02-03T22:03:51.984Z,17.00
2018-02-03T22:06:24.888Z,15.90
2018-02-03T22:08:56.728Z,15.73
